createdAt,value
2023-04-18T00:01:18.619Z,11.00
2023-04-18T00:04:08.233Z,10.90
2023-04-18T00:06:54.175Z,10.50
2023-04-18T00:09:40.630Z,10.70
2023-04-18T00:12:26.625Z,10.50
2023-04-18T00:15:12.778Z,10.80
2023-04-18T00:18:00.818Z,10.70
2023-04-18T00:20:46.929Z,10.40
2023-04-18T00:23:34.406Z,10.40
2023-04-18T00:26:19.843Z,10.20
2023-04-18T00:29:07.095Z,10.00
2023-04-18T00:31:54.500Z,10.00
2023-04-18T00:34:42.042Z,10.10
2023-04-18T00:37:27.833Z,10.40
2023-04-18T00:40:13.965Z,10.30
2023-04-18T00:43:00.201Z,10.20
2023-04-18T00:45:46.027Z,9.80
2023-04-18T00:48:32.190Z,9.50
2023-04-18T00:51:19.891Z,9.60
2023-04-18T00:54:06.721Z,9.90
2023-04-18T00:56:52.562Z,9.50
2023-04-18T00:59:39.027Z,9.60
2023-04-18T01:02:30.403Z,9.60
2023-04-18T01:05:18.154Z,9.80
2023-04-18T01:08:05.598Z,9.70
2023-04-18T01:10:53.852Z,9.50
2023-04-18T01:13:39.531Z,9.40
2023-04-18T01:16:24.989Z,9.50
2023-04-18T01:19:11.434Z,9.40
2023-04-18T01:21:59.775Z,9.40
2023-04-18T01:24:46.983Z,9.30
2023-04-18T01:27:32.627Z,9.30
2023-04-18T01:30:19.587Z,9.60
2023-04-18T01:33:05.893Z,9.60
2023-04-18T01:35:51.622Z,9.50
2023-04-18T01:38:37.296Z,9.40
2023-04-18T01:41:24.567Z,9.20
2023-04-18T01:44:10.339Z,9.30
2023-04-18T01:46:56.436Z,9.30
2023-04-18T01:49:46.700Z,9.10
2023-04-18T01:52:32.492Z,8.90
2023-04-18T01:55:18.593Z,9.20
2023-04-18T01:58:05.519Z,9.00
2023-04-18T02:00:52.416Z,9.00
2023-04-18T02:03:38.277Z,9.00
2023-04-18T02:06:27.124Z,8.80
2023-04-18T02:09:12.619Z,8.90
2023-04-18T02:12:02.534Z,8.90
2023-04-18T02:14:55.824Z,8.70
2023-04-18T02:17:42.244Z,8.80
2023-04-18T02:20:31.604Z,8.60
2023-04-18T02:23:20.104Z,8.60
2023-04-18T02:26:06.783Z,8.70
2023-04-18T02:28:52.379Z,8.90
2023-04-18T02:31:40.461Z,8.90
2023-04-18T02:34:26.506Z,9.00
2023-04-18T02:37:12.025Z,9.10
2023-04-18T02:39:59.560Z,8.90
2023-04-18T02:42:49.174Z,9.00
2023-04-18T02:45:35.019Z,8.90
2023-04-18T02:48:22.715Z,8.60
2023-04-18T02:51:09.386Z,8.60
2023-04-18T02:53:57.167Z,8.30
2023-04-18T02:56:46.429Z,8.60
2023-04-18T02:59:38.571Z,8.50
2023-04-18T03:02:36.184Z,8.60
2023-04-18T03:05:36.404Z,8.40
2023-04-18T03:08:25.688Z,8.40
2023-04-18T03:11:12.013Z,8.40
2023-04-18T03:13:58.006Z,8.40
2023-04-18T03:16:48.701Z,8.40
2023-04-18T03:19:38.947Z,8.40
2023-04-18T03:22:30.315Z,8.10
2023-04-18T03:25:18.051Z,8.30
2023-04-18T03:28:10.996Z,8.20
2023-04-18T03:30:56.845Z,8.20
2023-04-18T03:33:44.191Z,8.40
2023-04-18T03:36:31.383Z,8.20
2023-04-18T03:39:18.926Z,8.40
2023-04-18T03:42:05.429Z,8.30
2023-04-18T03:44:52.324Z,8.30
2023-04-18T03:47:38.524Z,8.30
2023-04-18T03:50:25.764Z,7.80
2023-04-18T03:53:14.455Z,8.10
2023-04-18T03:56:01.637Z,7.80
2023-04-18T03:59:01.939Z,7.90
2023-04-18T04:01:47.757Z,8.20
2023-04-18T04:04:33.790Z,7.80
2023-04-18T04:07:19.503Z,7.70
2023-04-18T04:10:06.782Z,7.90
2023-04-18T04:12:53.836Z,7.90
2023-04-18T04:15:39.831Z,8.10
2023-04-18T04:18:31.315Z,8.50
2023-04-18T04:21:21.054Z,8.50
2023-04-18T04:24:10.409Z,8.60
2023-04-18T04:27:00.404Z,8.50
2023-04-18T04:29:49.179Z,8.40
2023-04-18T04:32:38.920Z,8.40
2023-04-18T04:35:24.738Z,8.50
2023-04-18T04:38:12.424Z,8.50
2023-04-18T04:41:04.065Z,8.20
2023-04-18T04:43:51.197Z,8.20
2023-04-18T04:46:44.830Z,8.30
2023-04-18T04:49:38.245Z,8.30
2023-04-18T04:52:24.305Z,8.50
2023-04-18T04:55:10.832Z,8.50
2023-04-18T04:57:56.320Z,8.50
2023-04-18T05:00:58.441Z,8.50
2023-04-18T05:03:45.929Z,8.60
2023-04-18T05:06:33.888Z,8.50
2023-04-18T05:09:19.838Z,8.70
2023-04-18T05:12:05.982Z,9.10
2023-04-18T05:14:51.524Z,9.00
2023-04-18T05:17:37.098Z,9.20
2023-04-18T05:20:24.544Z,8.90
2023-04-18T05:23:10.290Z,8.60
2023-04-18T05:25:55.986Z,8.80
2023-04-18T05:28:41.625Z,8.90
2023-04-18T05:31:27.498Z,9.00
2023-04-18T05:34:13.162Z,8.70
2023-04-18T05:37:00.445Z,8.90
2023-04-18T05:39:46.584Z,9.00
2023-04-18T05:42:32.136Z,8.70
2023-04-18T05:45:17.711Z,8.90
2023-04-18T05:48:04.020Z,9.00
2023-04-18T05:50:49.749Z,9.10
2023-04-18T05:53:37.138Z,9.30
2023-04-18T05:56:22.728Z,9.30
2023-04-18T05:59:08.243Z,9.40
2023-04-18T06:01:53.938Z,9.40
2023-04-18T06:04:41.227Z,9.30
2023-04-18T06:07:27.033Z,9.40
2023-04-18T06:10:14.203Z,9.70
2023-04-18T06:12:59.777Z,9.80
2023-04-18T06:15:45.630Z,9.30
2023-04-18T06:18:31.372Z,9.40
2023-04-18T06:21:17.355Z,9.90
2023-04-18T06:24:02.975Z,9.70
2023-04-18T06:26:49.937Z,10.00
2023-04-18T06:29:36.861Z,10.40
2023-04-18T06:32:23.531Z,10.40
2023-04-18T06:35:09.462Z,10.70
2023-04-18T06:37:55.828Z,10.80
2023-04-18T06:40:41.662Z,10.50
2023-04-18T06:43:28.740Z,10.10
2023-04-18T06:46:14.586Z,10.10
2023-04-18T06:49:00.642Z,10.00
2023-04-18T06:51:46.675Z,10.20
2023-04-18T06:54:32.265Z,10.00
2023-04-18T06:57:18.063Z,9.70
2023-04-18T07:00:07.803Z,9.60
2023-04-18T07:02:53.570Z,9.90
2023-04-18T07:05:39.543Z,10.00
2023-04-18T07:08:25.175Z,9.60
2023-04-18T07:11:13.176Z,10.00
2023-04-18T07:13:58.957Z,10.10
2023-04-18T07:16:46.249Z,10.50
2023-04-18T07:19:31.837Z,10.30
2023-04-18T07:22:17.215Z,10.80
2023-04-18T07:25:03.166Z,11.20
2023-04-18T07:27:48.663Z,12.10
2023-04-18T07:30:34.931Z,12.60
2023-04-18T07:33:22.004Z,12.60
2023-04-18T07:36:08.374Z,12.80
2023-04-18T07:38:54.244Z,12.90
2023-04-18T07:41:40.092Z,13.80
2023-04-18T07:44:25.845Z,13.80
2023-04-18T07:47:12.889Z,14.20
2023-04-18T07:49:59.837Z,14.80
2023-04-18T07:52:48.060Z,15.70
2023-04-18T07:55:33.529Z,16.40
2023-04-18T07:58:19.108Z,14.40
2023-04-18T08:01:06.042Z,13.60
2023-04-18T08:03:53.555Z,13.00
2023-04-18T08:06:41.248Z,12.50
2023-04-18T08:09:26.887Z,12.50
2023-04-18T08:12:12.869Z,12.50
2023-04-18T08:14:58.658Z,12.00
2023-04-18T08:17:45.309Z,12.20
2023-04-18T08:20:31.131Z,13.20
2023-04-18T08:23:18.293Z,12.70
2023-04-18T08:26:03.935Z,12.90
2023-04-18T08:28:49.901Z,12.90
2023-04-18T08:31:35.333Z,12.50
2023-04-18T08:34:20.917Z,12.60
2023-04-18T08:37:07.355Z,12.60
2023-04-18T08:39:54.626Z,12.50
2023-04-18T08:42:44.817Z,13.10
2023-04-18T08:45:31.365Z,13.60
2023-04-18T08:48:18.221Z,14.60
2023-04-18T08:51:04.987Z,14.70
2023-04-18T08:53:51.032Z,14.90
2023-04-18T08:56:37.760Z,15.20
2023-04-18T08:59:23.810Z,14.80
2023-04-18T09:02:13.196Z,13.90
2023-04-18T09:04:59.666Z,14.50
2023-04-18T09:07:46.264Z,15.40
2023-04-18T09:10:34.062Z,14.90
2023-04-18T09:13:38.584Z,14.40
2023-04-18T09:16:24.917Z,14.10
2023-04-18T09:19:13.090Z,14.80
2023-04-18T09:22:02.018Z,15.80
2023-04-18T09:24:53.600Z,16.50
2023-04-18T09:27:39.090Z,16.80
2023-04-18T09:30:40.632Z,15.60
2023-04-18T09:33:28.337Z,15.60
2023-04-18T09:36:18.759Z,15.30
2023-04-18T09:39:04.767Z,15.40
2023-04-18T09:41:58.580Z,15.40
2023-04-18T09:45:05.805Z,15.40
2023-04-18T09:47:53.967Z,15.80
2023-04-18T09:50:41.652Z,16.10
2023-04-18T09:53:29.667Z,15.20
2023-04-18T09:56:20.392Z,14.30
2023-04-18T09:59:08.754Z,15.00
2023-04-18T10:01:55.979Z,15.70
2023-04-18T10:04:45.611Z,15.60
2023-04-18T10:07:32.473Z,15.90
2023-04-18T10:10:18.431Z,15.40
2023-04-18T10:13:06.250Z,14.40
2023-04-18T10:15:52.585Z,14.30
2023-04-18T10:18:38.459Z,15.10
2023-04-18T10:21:28.496Z,15.00
2023-04-18T10:24:53.591Z,14.20
2023-04-18T10:27:59.111Z,13.70
2023-04-18T10:30:56.663Z,13.60
2023-04-18T10:36:36.757Z,13.60
2023-04-18T10:39:25.618Z,14.60
2023-04-18T10:42:11.652Z,15.20
2023-04-18T10:45:22.405Z,15.60
2023-04-18T10:48:30.200Z,16.00
2023-04-18T10:51:19.024Z,16.50
2023-04-18T10:54:09.608Z,17.40
2023-04-18T10:56:57.152Z,17.60
2023-04-18T10:59:44.155Z,17.90
2023-04-18T11:02:32.267Z,16.60
2023-04-18T11:05:23.229Z,16.70
2023-04-18T11:08:22.652Z,15.80
2023-04-18T11:11:11.362Z,15.20
2023-04-18T11:13:57.618Z,15.70
2023-04-18T11:16:43.433Z,15.20
2023-04-18T11:19:29.314Z,14.80
2023-04-18T11:22:15.895Z,15.20
2023-04-18T11:25:08.167Z,15.50
2023-04-18T11:27:57.967Z,15.40
2023-04-18T11:30:43.912Z,15.30
2023-04-18T11:33:30.230Z,15.60
2023-04-18T11:36:16.508Z,15.60
2023-04-18T11:39:02.382Z,15.70
2023-04-18T11:41:50.993Z,15.00
2023-04-18T11:44:40.013Z,15.80
2023-04-18T11:47:26.959Z,16.50
2023-04-18T11:50:13.825Z,16.80
2023-04-18T11:52:59.635Z,16.60
2023-04-18T11:55:54.927Z,15.70
2023-04-18T11:58:40.698Z,15.90
2023-04-18T12:01:27.657Z,15.80
2023-04-18T12:04:14.457Z,16.20
2023-04-18T12:07:00.940Z,16.50
2023-04-18T12:09:46.580Z,16.40
2023-04-18T12:12:32.636Z,16.40
2023-04-18T12:15:19.531Z,16.30
2023-04-18T12:18:09.801Z,15.80
2023-04-18T12:20:55.252Z,15.30
2023-04-18T12:23:42.412Z,14.70
2023-04-18T12:26:28.116Z,14.90
2023-04-18T12:29:14.337Z,15.10
2023-04-18T12:32:00.353Z,15.10
2023-04-18T12:34:48.142Z,15.30
2023-04-18T12:37:34.080Z,15.50
2023-04-18T12:40:20.806Z,15.50
2023-04-18T12:43:07.327Z,16.30
2023-04-18T12:45:53.693Z,15.90
2023-04-18T12:48:39.409Z,16.10
2023-04-18T12:51:27.903Z,16.60
2023-04-18T12:54:13.851Z,17.00
2023-04-18T12:56:59.870Z,17.00
2023-04-18T12:59:45.605Z,17.20
2023-04-18T13:02:32.220Z,17.30
2023-04-18T13:05:20.137Z,17.80
2023-04-18T13:08:16.120Z,18.70
2023-04-18T13:11:03.206Z,18.20
2023-04-18T13:13:49.004Z,18.00
2023-04-18T13:16:35.026Z,17.80
2023-04-18T13:19:21.001Z,17.60
2023-04-18T13:22:07.029Z,17.80
2023-04-18T13:24:54.625Z,17.90
2023-04-18T13:27:41.943Z,18.00
2023-04-18T13:30:27.988Z,17.70
2023-04-18T13:33:13.944Z,16.50
2023-04-18T13:35:59.868Z,16.20
2023-04-18T13:38:46.068Z,16.40
2023-04-18T13:41:33.559Z,16.20
2023-04-18T13:44:19.147Z,16.00
2023-04-18T13:47:06.641Z,15.80
2023-04-18T13:49:52.577Z,16.00
2023-04-18T13:52:38.088Z,16.10
2023-04-18T13:55:24.273Z,16.00
2023-04-18T13:58:11.274Z,16.10
2023-04-18T14:00:56.944Z,16.70
2023-04-18T14:03:43.870Z,17.30
2023-04-18T14:06:29.703Z,17.00
2023-04-18T14:09:16.760Z,16.90
2023-04-18T14:12:02.321Z,16.50
2023-04-18T14:14:49.541Z,16.80
2023-04-18T14:17:35.565Z,17.10
2023-04-18T14:20:21.540Z,17.20
2023-04-18T14:23:07.530Z,17.10
2023-04-18T14:25:53.424Z,16.00
2023-04-18T14:28:39.541Z,15.50
2023-04-18T14:31:28.182Z,15.60
2023-04-18T14:34:13.961Z,16.00
2023-04-18T14:36:59.999Z,16.00
2023-04-18T14:39:46.198Z,16.70
2023-04-18T14:42:32.082Z,16.70
2023-04-18T14:45:17.945Z,16.90
2023-04-18T14:48:07.907Z,17.30
2023-04-18T14:50:57.846Z,17.10
2023-04-18T14:53:43.827Z,17.10
2023-04-18T14:56:29.936Z,16.90
2023-04-18T14:59:16.760Z,16.60
2023-04-18T15:02:03.240Z,16.30
2023-04-18T15:04:50.849Z,16.00
2023-04-18T15:07:37.885Z,16.10
2023-04-18T15:10:24.078Z,16.40
2023-04-18T15:13:09.911Z,16.50
2023-04-18T15:15:56.960Z,16.80
2023-04-18T15:18:43.679Z,17.00
2023-04-18T15:21:30.502Z,17.80
2023-04-18T15:24:16.768Z,17.80
2023-04-18T15:27:03.479Z,17.20
2023-04-18T15:29:49.408Z,16.60
2023-04-18T15:32:35.134Z,16.40
2023-04-18T15:35:21.031Z,16.50
2023-04-18T15:38:08.129Z,16.90
2023-04-18T15:40:54.013Z,17.50
2023-04-18T15:43:42.362Z,17.90
2023-04-18T15:46:28.424Z,17.60
2023-04-18T15:49:14.169Z,17.70
2023-04-18T15:52:00.316Z,17.40
2023-04-18T15:54:47.252Z,17.60
2023-04-18T15:57:33.061Z,17.10
2023-04-18T16:00:19.804Z,17.30
2023-04-18T16:03:05.728Z,17.10
2023-04-18T16:05:51.698Z,16.80
2023-04-18T16:08:37.384Z,16.50
2023-04-18T16:11:26.345Z,17.30
2023-04-18T16:14:12.201Z,17.40
2023-04-18T16:16:59.677Z,17.40
2023-04-18T16:19:45.520Z,17.90
2023-04-18T16:22:31.208Z,18.00
2023-04-18T16:25:16.652Z,18.00
2023-04-18T16:28:03.743Z,18.00
2023-04-18T16:30:49.852Z,17.50
2023-04-18T16:33:35.487Z,17.20
2023-04-18T16:36:21.252Z,17.10
2023-04-18T16:39:06.989Z,17.40
2023-04-18T16:41:52.450Z,17.40
2023-04-18T16:44:39.646Z,17.60
2023-04-18T16:47:25.956Z,17.60
2023-04-18T16:50:11.772Z,17.60
2023-04-18T16:52:57.663Z,17.40
2023-04-18T16:55:43.324Z,17.30
2023-04-18T16:58:29.258Z,16.80
2023-04-18T17:01:16.193Z,16.60
2023-04-18T17:04:02.411Z,16.40
2023-04-18T17:06:49.740Z,16.50
2023-04-18T17:09:37.621Z,16.80
2023-04-18T17:12:23.046Z,17.00
2023-04-18T17:15:09.252Z,16.50
2023-04-18T17:17:56.624Z,16.60
2023-04-18T17:20:42.479Z,16.50
2023-04-18T17:23:28.693Z,16.50
2023-04-18T17:26:15.714Z,16.60
2023-04-18T17:29:03.285Z,16.50
2023-04-18T17:31:48.872Z,16.40
2023-04-18T17:34:36.367Z,16.00
2023-04-18T17:37:22.413Z,16.00
2023-04-18T17:40:10.048Z,15.80
2023-04-18T17:42:55.845Z,15.80
2023-04-18T17:45:41.964Z,16.10
2023-04-18T17:48:28.033Z,16.40
2023-04-18T17:51:19.409Z,16.60
2023-04-18T17:54:05.517Z,16.80
2023-04-18T17:56:51.714Z,16.40
2023-04-18T17:59:37.826Z,16.40
2023-04-18T18:02:23.794Z,16.50
2023-04-18T18:05:13.708Z,16.20
2023-04-18T18:08:01.498Z,16.20
2023-04-18T18:10:48.017Z,16.00
2023-04-18T18:13:34.095Z,16.30
2023-04-18T18:16:19.924Z,16.00
2023-04-18T18:19:09.341Z,16.00
2023-04-18T18:21:55.265Z,16.00
2023-04-18T18:24:42.468Z,15.90
2023-04-18T18:27:28.257Z,15.60
2023-04-18T18:30:14.407Z,15.40
2023-04-18T18:33:01.541Z,15.70
2023-04-18T18:35:47.339Z,15.80
2023-04-18T18:38:33.250Z,15.60
2023-04-18T18:41:20.928Z,15.30
2023-04-18T18:44:07.156Z,15.50
2023-04-18T18:46:53.253Z,15.40
2023-04-18T18:49:39.244Z,15.10
2023-04-18T18:52:27.993Z,15.00
2023-04-18T18:55:13.691Z,14.40
2023-04-18T18:58:01.084Z,14.50
2023-04-18T19:00:46.921Z,14.70
2023-04-18T19:03:34.141Z,14.70
2023-04-18T19:06:19.876Z,14.80
2023-04-18T19:09:06.054Z,14.60
2023-04-18T19:11:51.784Z,14.50
2023-04-18T19:14:40.241Z,14.10
2023-04-18T19:17:27.150Z,14.00
2023-04-18T19:20:13.034Z,13.80
2023-04-18T19:22:58.694Z,13.60
2023-04-18T19:25:44.928Z,13.90
2023-04-18T19:28:30.849Z,14.00
2023-04-18T19:31:18.065Z,13.70
2023-04-18T19:34:03.972Z,13.60
2023-04-18T19:36:49.936Z,13.40
2023-04-18T19:39:35.784Z,13.10
2023-04-18T19:42:21.884Z,12.60
2023-04-18T19:45:08.913Z,12.70
2023-04-18T19:47:56.357Z,12.50
2023-04-18T19:50:42.347Z,12.60
2023-04-18T19:53:28.589Z,12.40
2023-04-18T19:56:14.969Z,12.50
2023-04-18T19:59:01.692Z,12.50
2023-04-18T20:01:47.602Z,12.60
2023-04-18T20:04:36.528Z,12.40
2023-04-18T20:07:23.673Z,12.60
2023-04-18T20:10:11.472Z,13.00
2023-04-18T20:12:57.422Z,13.30
2023-04-18T20:15:43.519Z,13.40
2023-04-18T20:18:30.382Z,13.40
2023-04-18T20:21:17.649Z,13.30
2023-04-18T20:24:03.869Z,13.10
2023-04-18T20:26:49.639Z,12.80
2023-04-18T20:29:35.315Z,12.50
2023-04-18T20:32:21.730Z,12.40
2023-04-18T20:35:08.456Z,12.00
2023-04-18T20:37:55.912Z,11.90
2023-04-18T20:40:44.989Z,11.70
2023-04-18T20:43:36.391Z,11.30
2023-04-18T20:46:22.170Z,11.40
2023-04-18T20:49:08.802Z,11.60
2023-04-18T20:51:54.744Z,11.90
2023-04-18T20:54:42.043Z,12.00
2023-04-18T20:57:28.112Z,12.30
2023-04-18T21:00:14.391Z,12.40
2023-04-18T21:03:00.605Z,12.50
2023-04-18T21:05:46.520Z,12.40
2023-04-18T21:08:34.677Z,12.30
2023-04-18T21:11:21.856Z,12.10
2023-04-18T21:14:07.610Z,12.20
2023-04-18T21:16:53.376Z,11.60
2023-04-18T21:19:47.585Z,11.70
2023-04-18T21:22:33.420Z,11.60
2023-04-18T21:25:21.206Z,11.50
2023-04-18T21:28:08.130Z,11.60
2023-04-18T21:30:53.721Z,11.70
2023-04-18T21:33:39.348Z,11.20
2023-04-18T21:36:29.212Z,11.00
2023-04-18T21:39:14.779Z,11.30
2023-04-18T21:42:01.787Z,11.20
2023-04-18T21:44:48.746Z,11.70
2023-04-18T21:47:34.336Z,11.80
2023-04-18T21:50:20.600Z,11.80
2023-04-18T21:53:06.375Z,12.00
2023-04-18T21:55:52.311Z,11.90
2023-04-18T21:58:38.312Z,11.60
2023-04-18T22:01:25.823Z,11.60
2023-04-18T22:04:12.418Z,11.50
2023-04-18T22:06:58.617Z,11.60
2023-04-18T22:09:44.735Z,11.50
2023-04-18T22:12:30.749Z,11.60
2023-04-18T22:15:18.165Z,11.50
2023-04-18T22:18:06.134Z,11.40
2023-04-18T22:20:53.685Z,11.30
2023-04-18T22:23:39.881Z,11.50
2023-04-18T22:26:26.021Z,11.70
2023-04-18T22:29:11.873Z,11.70
2023-04-18T22:31:57.868Z,11.50
2023-04-18T22:34:45.390Z,11.70
2023-04-18T22:37:31.267Z,11.50
2023-04-18T22:40:17.667Z,11.40
2023-04-18T22:43:03.252Z,11.40
2023-04-18T22:45:49.295Z,11.50
2023-04-18T22:48:35.237Z,11.50
2023-04-18T22:51:23.423Z,11.40
2023-04-18T22:54:09.024Z,11.00
2023-04-18T22:56:54.681Z,10.80
2023-04-18T22:59:40.781Z,10.80
2023-04-18T23:02:26.952Z,10.90
2023-04-18T23:05:15.445Z,11.30
2023-04-18T23:08:02.872Z,11.60
2023-04-18T23:10:48.997Z,11.50
2023-04-18T23:13:34.644Z,11.60
2023-04-18T23:16:20.651Z,11.70
2023-04-18T23:19:06.703Z,12.00
2023-04-18T23:21:52.566Z,12.10
2023-04-18T23:24:39.362Z,12.10
2023-04-18T23:27:25.376Z,12.30
2023-04-18T23:30:11.950Z,12.50
2023-04-18T23:32:57.800Z,12.20
2023-04-18T23:35:43.684Z,12.40
2023-04-18T23:38:30.639Z,12.20
2023-04-18T23:41:17.514Z,12.20
2023-04-18T23:44:03.175Z,12.20
2023-04-18T23:46:49.378Z,12.20
2023-04-18T23:49:35.259Z,12.00
2023-04-18T23:52:21.234Z,12.20
2023-04-18T23:55:08.126Z,12.00
2023-04-18T23:57:55.250Z,11.90
